createdAt,value
2018-07-10T00:02:14.534Z,4.50
2018-07-10T00:09:00.272Z,8.80
2018-07-10T00:11:30.478Z,4.83
2018-07-10T00:13:58.843Z,6.93
2018-07-10T00:16:27.350Z,6.33
2018-07-10T00:18:56.636Z,5.00
2018-07-10T00:21:24.972Z,6.10
2018-07-10T00:23:53.498Z,6.23
2018-07-10T00:26:21.968Z,5.17
2018-07-10T00:28:50.303Z,5.97
2018-07-10T00:31:19.074Z,6.57
2018-07-10T00:33:48.265Z,3.63
2018-07-10T00:36:16.907Z,7.80
2018-07-10T00:38:56.600Z,5.33
2018-07-10T00:41:29.228Z,7.07
2018-07-10T00:43:58.432Z,4.33
2018-07-10T00:46:28.509Z,6.23
2018-07-10T00:48:57.040Z,7.27
2018-07-10T00:51:25.464Z,6.03
2018-07-10T00:53:54.375Z,5.00
2018-07-10T00:56:25.089Z,8.70
2018-07-10T00:58:54.958Z,5.57
2018-07-10T01:01:25.000Z,9.10
2018-07-10T01:03:53.384Z,6.63
2018-07-10T01:06:22.190Z,7.33
2018-07-10T01:08:50.597Z,8.43
2018-07-10T01:11:19.716Z,4.10
2018-07-10T01:13:49.590Z,9.70
2018-07-10T01:16:21.547Z,5.70
2018-07-10T01:18:54.304Z,6.40
2018-07-10T01:21:24.029Z,7.27
2018-07-10T01:24:01.399Z,8.57
2018-07-10T01:26:32.281Z,5.57
2018-07-10T01:30:08.255Z,7.03
2018-07-10T01:32:36.593Z,11.80
2018-07-10T01:35:04.964Z,9.80
2018-07-10T01:37:34.499Z,8.60
2018-07-10T01:40:03.112Z,7.13
2018-07-10T01:42:31.630Z,9.30
2018-07-10T01:45:00.061Z,6.23
2018-07-10T01:47:28.634Z,7.63
2018-07-10T01:49:57.684Z,10.53
2018-07-10T01:52:26.048Z,7.23
2018-07-10T01:54:54.424Z,6.43
2018-07-10T01:57:24.017Z,11.00
2018-07-10T01:59:52.679Z,6.23
2018-07-10T02:02:22.061Z,10.83
2018-07-10T02:04:50.484Z,6.60
2018-07-10T02:07:19.207Z,6.43
2018-07-10T02:09:47.740Z,6.83
2018-07-10T02:12:16.760Z,5.77
2018-07-10T02:14:45.158Z,4.67
2018-07-10T02:17:13.563Z,6.93
2018-07-10T02:19:42.017Z,5.87
2018-07-10T02:22:10.388Z,4.47
2018-07-10T02:24:38.807Z,8.40
2018-07-10T02:27:07.284Z,5.77
2018-07-10T02:29:35.689Z,7.30
2018-07-10T02:32:04.172Z,4.33
2018-07-10T02:34:32.693Z,7.57
2018-07-10T02:37:02.960Z,6.67
2018-07-10T02:39:31.388Z,8.70
2018-07-10T02:42:00.086Z,5.10
2018-07-10T02:44:28.418Z,7.33
2018-07-10T02:46:57.105Z,4.37
2018-07-10T02:49:25.673Z,7.13
2018-07-10T02:52:03.651Z,7.87
2018-07-10T02:54:36.082Z,10.80
2018-07-10T02:57:06.746Z,7.90
2018-07-10T02:59:37.587Z,7.70
2018-07-10T03:02:07.927Z,8.57
2018-07-10T03:04:38.896Z,8.50
2018-07-10T03:07:07.247Z,7.43
2018-07-10T03:09:35.681Z,9.03
2018-07-10T03:12:04.654Z,8.30
2018-07-10T03:14:33.097Z,11.90
2018-07-10T03:17:01.899Z,5.57
2018-07-10T03:19:30.910Z,5.77
2018-07-10T03:21:59.364Z,12.20
2018-07-10T03:24:28.055Z,4.17
2018-07-10T03:26:56.634Z,7.90
2018-07-10T03:29:25.526Z,7.63
2018-07-10T03:31:54.093Z,7.47
2018-07-10T03:34:22.538Z,7.17
2018-07-10T03:36:51.081Z,6.80
2018-07-10T03:39:19.692Z,9.07
2018-07-10T03:41:48.605Z,10.03
2018-07-10T03:44:18.271Z,6.70
2018-07-10T03:46:46.639Z,6.70
2018-07-10T03:49:15.171Z,5.97
2018-07-10T03:51:43.570Z,9.53
2018-07-10T03:54:11.940Z,4.90
2018-07-10T03:56:40.346Z,8.40
2018-07-10T03:59:08.756Z,5.00
2018-07-10T04:01:38.150Z,13.87
2018-07-10T04:04:06.658Z,7.40
2018-07-10T04:06:35.364Z,10.27
2018-07-10T04:09:05.897Z,5.67
2018-07-10T04:11:35.612Z,6.07
2018-07-10T04:14:04.576Z,7.80
2018-07-10T04:16:33.196Z,7.40
2018-07-10T04:19:01.525Z,6.27
2018-07-10T04:21:33.170Z,9.00
2018-07-10T04:24:17.291Z,6.27
2018-07-10T04:27:08.385Z,5.50
2018-07-10T04:31:45.875Z,7.40
2018-07-10T04:34:14.345Z,7.80
2018-07-10T04:36:42.901Z,6.80
2018-07-10T04:39:11.321Z,12.20
2018-07-10T04:41:42.368Z,9.87
2018-07-10T04:44:12.900Z,9.70
2018-07-10T04:46:44.724Z,9.23
2018-07-10T04:49:52.162Z,11.73
2018-07-10T04:52:27.093Z,7.63
2018-07-10T04:55:08.071Z,7.30
2018-07-10T04:57:57.443Z,7.37
2018-07-10T05:00:26.284Z,6.50
2018-07-10T05:02:56.353Z,8.13
2018-07-10T05:05:26.309Z,9.83
2018-07-10T05:07:54.693Z,8.00
2018-07-10T05:10:23.243Z,11.33
2018-07-10T05:12:51.759Z,12.83
2018-07-10T05:15:20.281Z,13.07
2018-07-10T05:17:51.496Z,7.93
2018-07-10T05:20:20.534Z,13.70
2018-07-10T05:22:49.297Z,8.70
2018-07-10T05:25:17.716Z,13.73
2018-07-10T05:27:46.064Z,12.20
2018-07-10T05:30:15.432Z,12.93
2018-07-10T05:32:43.862Z,14.77
2018-07-10T05:35:12.323Z,12.03
2018-07-10T05:37:40.787Z,15.17
2018-07-10T05:40:11.408Z,12.90
2018-07-10T05:42:43.221Z,11.50
2018-07-10T05:45:11.767Z,15.80
2018-07-10T05:47:40.413Z,10.97
2018-07-10T05:50:15.862Z,15.33
2018-07-10T05:52:45.663Z,20.97
2018-07-10T05:55:17.691Z,11.23
2018-07-10T05:57:46.462Z,13.83
2018-07-10T06:00:14.811Z,13.27
2018-07-10T06:02:43.379Z,19.30
2018-07-10T06:05:11.917Z,15.53
2018-07-10T06:07:41.159Z,17.73
2018-07-10T06:10:10.041Z,15.50
2018-07-10T06:12:38.656Z,16.87
2018-07-10T06:15:07.014Z,14.33
2018-07-10T06:17:35.523Z,13.80
2018-07-10T06:20:04.486Z,17.37
2018-07-10T06:22:32.990Z,13.20
2018-07-10T06:25:05.945Z,17.20
2018-07-10T06:27:39.376Z,9.80
2018-07-10T06:30:09.701Z,13.97
2018-07-10T06:34:50.172Z,17.40
2018-07-10T06:37:30.185Z,18.20
2018-07-10T06:39:59.427Z,15.60
2018-07-10T06:42:32.684Z,15.43
2018-07-10T06:45:04.003Z,14.53
2018-07-10T06:47:38.324Z,15.80
2018-07-10T06:50:06.827Z,13.60
2018-07-10T06:52:35.307Z,22.13
2018-07-10T06:55:12.489Z,15.53
2018-07-10T06:57:45.787Z,15.67
2018-07-10T07:00:14.201Z,19.00
2018-07-10T07:02:42.687Z,20.30
2018-07-10T07:05:11.142Z,17.50
2018-07-10T07:07:40.349Z,14.40
2018-07-10T07:10:10.296Z,18.13
2018-07-10T07:12:39.568Z,14.53
2018-07-10T07:15:10.590Z,23.33
2018-07-10T07:17:42.552Z,21.33
2018-07-10T07:20:10.904Z,17.03
2018-07-10T07:22:39.300Z,15.30
2018-07-10T07:25:08.018Z,20.27
2018-07-10T07:27:36.784Z,19.20
2018-07-10T07:30:05.139Z,14.27
2018-07-10T07:32:33.524Z,14.87
2018-07-10T07:35:02.255Z,19.53
2018-07-10T07:37:31.101Z,15.93
2018-07-10T07:39:59.436Z,16.30
2018-07-10T07:42:28.476Z,12.27
2018-07-10T07:44:57.038Z,13.33
2018-07-10T07:47:27.864Z,13.20
2018-07-10T07:49:56.494Z,16.43
2018-07-10T07:52:26.358Z,16.10
2018-07-10T07:54:55.024Z,16.87
2018-07-10T07:57:24.197Z,12.00
2018-07-10T07:59:52.837Z,12.27
2018-07-10T08:02:22.244Z,14.13
2018-07-10T08:04:50.740Z,10.10
2018-07-10T08:07:20.008Z,13.30
2018-07-10T08:09:49.393Z,13.10
2018-07-10T08:12:17.867Z,12.77
2018-07-10T08:14:46.621Z,17.77
2018-07-10T08:17:15.272Z,17.37
2018-07-10T08:19:44.953Z,13.33
2018-07-10T08:22:13.320Z,14.77
2018-07-10T08:24:41.758Z,16.13
2018-07-10T08:27:10.288Z,19.20
2018-07-10T08:29:39.161Z,17.50
2018-07-10T08:32:07.643Z,17.20
2018-07-10T08:34:36.508Z,22.73
2018-07-10T08:37:04.912Z,22.63
2018-07-10T08:39:33.304Z,22.70
2018-07-10T08:42:05.125Z,17.73
2018-07-10T08:44:33.595Z,20.60
2018-07-10T08:47:02.054Z,21.20
2018-07-10T08:49:35.007Z,20.47
2018-07-10T08:52:03.585Z,20.37
2018-07-10T08:54:32.049Z,19.40
2018-07-10T08:57:01.085Z,21.77
2018-07-10T08:59:29.631Z,24.17
2018-07-10T09:01:58.085Z,24.90
2018-07-10T09:04:27.473Z,20.50
2018-07-10T09:06:55.996Z,23.70
2018-07-10T09:09:24.436Z,23.80
2018-07-10T09:11:52.913Z,24.83
2018-07-10T09:14:21.445Z,23.50
2018-07-10T09:16:50.151Z,21.13
2018-07-10T09:19:20.715Z,18.40
2018-07-10T09:21:52.567Z,27.50
2018-07-10T09:24:21.155Z,20.97
2018-07-10T09:26:51.513Z,21.10
2018-07-10T09:29:20.492Z,20.23
2018-07-10T09:31:48.872Z,21.97
2018-07-10T09:34:17.260Z,18.63
2018-07-10T09:36:45.657Z,20.57
2018-07-10T09:39:14.047Z,20.20
2018-07-10T09:41:42.501Z,21.00
2018-07-10T09:44:11.857Z,21.00
2018-07-10T09:46:40.407Z,22.63
2018-07-10T09:49:08.752Z,20.13
2018-07-10T09:51:37.139Z,17.83
2018-07-10T09:54:05.641Z,23.83
2018-07-10T09:56:34.201Z,21.00
2018-07-10T09:59:02.837Z,19.03
2018-07-10T10:01:33.591Z,21.53
2018-07-10T10:04:03.399Z,20.50
2018-07-10T10:06:31.856Z,17.03
2018-07-10T10:09:00.268Z,20.47
2018-07-10T10:11:28.837Z,21.07
2018-07-10T10:13:57.253Z,24.17
2018-07-10T10:16:25.629Z,19.10
2018-07-10T10:18:56.069Z,21.73
2018-07-10T10:21:25.678Z,20.20
2018-07-10T10:23:54.093Z,18.67
2018-07-10T10:26:22.595Z,19.30
2018-07-10T10:28:51.293Z,17.13
2018-07-10T10:31:19.659Z,21.30
2018-07-10T10:33:48.019Z,18.63
2018-07-10T10:36:16.444Z,20.30
2018-07-10T10:38:46.197Z,20.37
2018-07-10T10:41:16.541Z,20.10
2018-07-10T10:43:46.124Z,22.37
2018-07-10T10:46:15.920Z,19.00
2018-07-10T10:48:44.367Z,20.10
2018-07-10T10:51:13.768Z,17.07
2018-07-10T10:53:42.799Z,17.90
2018-07-10T10:56:11.184Z,19.93
2018-07-10T10:58:39.557Z,18.37
2018-07-10T11:01:08.391Z,17.37
2018-07-10T11:03:36.852Z,16.07
2018-07-10T11:06:05.487Z,21.10
2018-07-10T11:08:33.817Z,15.77
2018-07-10T11:11:02.308Z,14.93
2018-07-10T11:13:30.924Z,16.43
2018-07-10T11:15:59.372Z,12.50
2018-07-10T11:18:34.194Z,12.13
2018-07-10T11:22:14.101Z,15.77
2018-07-10T11:25:05.007Z,13.57
2018-07-10T11:27:46.762Z,10.50
2018-07-10T11:30:15.210Z,13.43
2018-07-10T11:32:43.553Z,9.00
2018-07-10T11:35:11.972Z,11.83
2018-07-10T11:37:40.478Z,14.43
2018-07-10T11:40:09.931Z,15.10
2018-07-10T11:42:38.710Z,13.33
2018-07-10T11:45:07.324Z,19.07
2018-07-10T11:47:35.767Z,15.13
2018-07-10T11:50:04.533Z,15.60
2018-07-10T11:52:33.116Z,20.97
2018-07-10T11:55:01.642Z,19.40
2018-07-10T11:57:30.040Z,15.60
2018-07-10T11:59:58.550Z,19.27
2018-07-10T12:02:36.704Z,18.73
2018-07-10T12:05:05.300Z,14.60
2018-07-10T12:07:34.812Z,12.83
2018-07-10T12:10:15.204Z,15.40
2018-07-10T12:12:43.570Z,13.40
2018-07-10T12:15:12.023Z,17.63
2018-07-10T12:17:40.437Z,11.90
2018-07-10T12:20:08.914Z,15.73
2018-07-10T12:22:38.833Z,9.90
2018-07-10T12:25:07.728Z,12.67
2018-07-10T12:27:36.301Z,9.10
2018-07-10T12:30:06.921Z,9.43
2018-07-10T12:32:36.236Z,12.37
2018-07-10T12:35:05.534Z,10.97
2018-07-10T12:37:34.403Z,10.23
2018-07-10T12:40:02.900Z,12.60
2018-07-10T12:42:31.622Z,12.63
2018-07-10T12:44:59.991Z,12.43
2018-07-10T12:47:29.301Z,11.53
2018-07-10T12:49:57.707Z,13.33
2018-07-10T12:52:26.767Z,11.63
2018-07-10T12:54:57.556Z,10.87
2018-07-10T12:57:27.178Z,10.80
2018-07-10T12:59:55.711Z,9.43
2018-07-10T13:02:24.776Z,13.57
2018-07-10T13:04:53.248Z,9.57
2018-07-10T13:07:22.026Z,12.00
2018-07-10T13:09:50.383Z,10.87
2018-07-10T13:12:18.746Z,9.17
2018-07-10T13:14:47.102Z,11.37
2018-07-10T13:17:15.519Z,14.50
2018-07-10T13:19:43.993Z,14.17
2018-07-10T13:22:13.495Z,16.87
2018-07-10T13:24:42.054Z,11.07
2018-07-10T13:27:10.511Z,11.03
2018-07-10T13:29:39.048Z,12.07
2018-07-10T13:32:07.470Z,9.57
2018-07-10T13:34:35.867Z,12.07
2018-07-10T13:37:04.462Z,12.87
2018-07-10T13:39:32.840Z,13.30
2018-07-10T13:42:01.677Z,9.50
2018-07-10T13:44:32.064Z,10.90
2018-07-10T13:47:00.539Z,9.37
2018-07-10T13:49:29.221Z,10.90
2018-07-10T13:51:57.702Z,7.77
2018-07-10T13:54:26.069Z,12.27
2018-07-10T13:56:54.671Z,5.33
2018-07-10T13:59:24.971Z,9.00
2018-07-10T14:01:53.368Z,10.60
2018-07-10T14:04:21.806Z,7.40
2018-07-10T14:06:50.330Z,8.77
2018-07-10T14:09:18.707Z,10.23
2018-07-10T14:11:47.396Z,9.70
2018-07-10T14:14:15.801Z,8.13
2018-07-10T14:16:44.185Z,5.80
2018-07-10T14:19:13.860Z,5.73
2018-07-10T14:21:42.236Z,7.10
2018-07-10T14:24:10.827Z,4.80
2018-07-10T14:26:39.220Z,6.70
2018-07-10T14:29:07.657Z,7.03
2018-07-10T14:31:36.085Z,5.13
2018-07-10T14:34:04.547Z,7.67
2018-07-10T14:36:33.131Z,4.43
2018-07-10T14:39:01.590Z,7.50
2018-07-10T14:41:30.187Z,5.53
2018-07-10T14:43:58.716Z,6.33
2018-07-10T14:46:27.664Z,5.77
2018-07-10T14:48:57.826Z,4.70
2018-07-10T14:51:33.729Z,6.03
2018-07-10T14:54:02.129Z,6.67
2018-07-10T14:56:30.492Z,5.10
2018-07-10T14:58:58.975Z,5.23
2018-07-10T15:01:27.290Z,5.93
2018-07-10T15:03:55.730Z,7.23
2018-07-10T15:06:24.137Z,6.73
2018-07-10T15:08:52.805Z,10.50
2018-07-10T15:11:21.221Z,9.20
2018-07-10T15:14:00.851Z,6.97
2018-07-10T15:16:35.067Z,8.60
2018-07-10T15:19:03.487Z,8.17
2018-07-10T15:21:31.844Z,7.30
2018-07-10T15:24:01.512Z,7.97
2018-07-10T15:26:30.150Z,5.70
2018-07-10T15:28:58.725Z,11.37
2018-07-10T15:31:28.030Z,9.73
2018-07-10T15:33:56.483Z,9.53
2018-07-10T15:36:25.217Z,12.87
2018-07-10T15:38:53.886Z,5.57
2018-07-10T15:41:22.391Z,7.87
2018-07-10T15:43:50.948Z,5.10
2018-07-10T15:46:19.436Z,6.40
2018-07-10T15:48:47.964Z,6.27
2018-07-10T15:51:16.375Z,4.23
2018-07-10T15:53:45.005Z,3.87
2018-07-10T15:56:13.462Z,4.10
2018-07-10T15:58:41.940Z,5.27
2018-07-10T16:01:11.289Z,4.93
2018-07-10T16:03:46.204Z,4.87
2018-07-10T16:06:15.054Z,4.47
2018-07-10T16:08:43.529Z,3.40
2018-07-10T16:11:11.958Z,2.67
2018-07-10T16:13:43.743Z,3.10
2018-07-10T16:16:15.163Z,4.60
2018-07-10T16:18:49.128Z,5.27
2018-07-10T16:21:17.485Z,4.53
2018-07-10T16:23:45.882Z,4.20
2018-07-10T16:26:21.518Z,4.13
2018-07-10T16:28:49.855Z,3.00
2018-07-10T16:31:19.382Z,4.93
2018-07-10T16:33:48.718Z,5.07
2018-07-10T16:36:17.858Z,4.13
2018-07-10T16:38:46.253Z,3.43
2018-07-10T16:41:23.142Z,3.37
2018-07-10T16:43:52.320Z,4.30
2018-07-10T16:46:23.688Z,2.70
2018-07-10T16:48:58.728Z,3.13
2018-07-10T16:51:31.686Z,3.13
2018-07-10T16:54:02.039Z,3.00
2018-07-10T16:56:30.543Z,3.83
2018-07-10T16:58:59.571Z,4.50
2018-07-10T17:01:28.619Z,4.10
2018-07-10T17:03:58.458Z,7.27
2018-07-10T17:06:26.937Z,3.33
2018-07-10T17:08:55.458Z,3.60
2018-07-10T17:11:23.838Z,2.53
2018-07-10T17:13:52.172Z,3.27
2018-07-10T17:16:26.968Z,3.23
2018-07-10T17:18:55.478Z,4.20
2018-07-10T17:21:23.964Z,2.67
2018-07-10T17:23:53.840Z,5.50
2018-07-10T17:26:22.209Z,3.70
2018-07-10T17:28:51.129Z,2.40
2018-07-10T17:31:19.556Z,1.87
2018-07-10T17:33:47.988Z,3.20
2018-07-10T17:36:16.495Z,2.17
2018-07-10T17:38:45.391Z,2.47
2018-07-10T17:41:13.753Z,2.07
2018-07-10T17:43:42.141Z,3.23
2018-07-10T17:46:10.539Z,2.20
2018-07-10T17:48:39.191Z,2.60
2018-07-10T17:51:07.735Z,4.03
2018-07-10T17:53:36.306Z,3.43
2018-07-10T17:56:04.821Z,3.90
2018-07-10T17:58:33.936Z,3.20
2018-07-10T18:01:02.509Z,3.77
2018-07-10T18:03:30.888Z,2.63
2018-07-10T18:05:59.222Z,2.37
2018-07-10T18:08:27.747Z,3.30
2018-07-10T18:10:56.148Z,3.20
2018-07-10T18:13:24.554Z,2.47
2018-07-10T18:15:52.933Z,3.87
2018-07-10T18:18:21.302Z,2.43
2018-07-10T18:20:49.788Z,3.53
2018-07-10T18:23:18.191Z,5.17
2018-07-10T18:25:46.723Z,5.10
2018-07-10T18:28:15.136Z,3.47
2018-07-10T18:30:43.850Z,5.03
2018-07-10T18:33:12.288Z,4.07
2018-07-10T18:35:40.692Z,3.90
2018-07-10T18:38:09.044Z,5.47
2018-07-10T18:40:37.449Z,2.63
2018-07-10T18:43:05.849Z,4.70
2018-07-10T18:45:34.251Z,2.60
2018-07-10T18:48:03.213Z,3.63
2018-07-10T18:50:31.602Z,3.53
2018-07-10T18:53:01.274Z,3.27
2018-07-10T18:55:29.622Z,3.00
2018-07-10T18:58:26.726Z,3.00
2018-07-10T19:02:03.314Z,3.57
2018-07-10T19:04:39.002Z,3.10
2018-07-10T19:07:07.384Z,4.03
2018-07-10T19:09:39.671Z,2.27
2018-07-10T19:12:10.177Z,4.07
2018-07-10T19:14:38.833Z,3.17
2018-07-10T19:17:12.443Z,2.03
2018-07-10T19:19:44.696Z,2.23
2018-07-10T19:22:13.090Z,4.93
2018-07-10T19:24:42.396Z,1.80
2018-07-10T19:27:29.648Z,2.37
2018-07-10T19:30:00.723Z,2.50
2018-07-10T19:32:29.131Z,3.83
2018-07-10T19:35:00.566Z,4.63
2018-07-10T19:37:31.083Z,2.23
2018-07-10T19:39:59.428Z,3.10
2018-07-10T19:42:29.232Z,2.53
2018-07-10T19:44:57.771Z,2.70
2018-07-10T19:47:26.414Z,2.93
2018-07-10T19:49:56.667Z,3.20
2018-07-10T19:52:25.112Z,1.90
2018-07-10T19:54:54.831Z,1.90
2018-07-10T19:57:39.725Z,2.50
2018-07-10T20:00:08.154Z,2.70
2018-07-10T20:02:36.819Z,2.00
2018-07-10T20:05:10.398Z,2.43
2018-07-10T20:07:42.687Z,1.60
2018-07-10T20:10:15.113Z,2.00
2018-07-10T20:13:48.246Z,3.10
2018-07-10T20:16:22.032Z,2.37
2018-07-10T20:18:59.583Z,1.73
2018-07-10T20:23:36.757Z,2.23
2018-07-10T20:26:10.489Z,1.97
2018-07-10T20:28:53.152Z,3.43
2018-07-10T20:31:28.231Z,2.67
2018-07-10T20:34:01.493Z,3.33
2018-07-10T20:36:29.924Z,2.50
2018-07-10T20:38:59.126Z,3.13
2018-07-10T20:41:36.517Z,2.17
2018-07-10T20:44:08.320Z,2.40
2018-07-10T20:46:42.743Z,2.83
2018-07-10T20:49:11.529Z,4.27
2018-07-10T20:51:49.673Z,2.37
2018-07-10T20:54:24.158Z,2.50
2018-07-10T20:57:01.086Z,4.17
2018-07-10T20:59:37.033Z,2.30
2018-07-10T21:02:07.643Z,2.40
2018-07-10T21:04:44.951Z,2.70
2018-07-10T21:07:23.038Z,2.67
2018-07-10T21:10:16.171Z,3.97
2018-07-10T21:12:55.996Z,3.67
2018-07-10T21:16:34.083Z,3.27
2018-07-10T21:19:10.854Z,4.07
2018-07-10T21:23:57.145Z,2.90
2018-07-10T21:26:33.830Z,4.20
2018-07-10T21:29:20.632Z,2.70
2018-07-10T21:31:57.165Z,3.77
2018-07-10T21:34:31.470Z,3.10
2018-07-10T21:37:04.082Z,3.40
2018-07-10T21:39:47.648Z,3.60
2018-07-10T21:42:32.308Z,3.73
2018-07-10T21:45:14.015Z,2.90
2018-07-10T21:47:50.172Z,4.10
2018-07-10T21:50:25.917Z,4.57
2018-07-10T21:52:54.459Z,6.43
2018-07-10T21:55:23.159Z,7.00
2018-07-10T21:57:52.385Z,8.30
2018-07-10T22:00:21.726Z,8.23
2018-07-10T22:02:50.164Z,5.13
2018-07-10T22:05:18.581Z,7.60
2018-07-10T22:07:47.100Z,12.43
2018-07-10T22:10:16.364Z,7.17
2018-07-10T22:12:46.971Z,9.17
2018-07-10T22:15:15.799Z,9.43
2018-07-10T22:17:44.429Z,10.53
2018-07-10T22:20:12.859Z,9.73
2018-07-10T22:22:41.261Z,11.50
2018-07-10T22:25:09.800Z,8.93
2018-07-10T22:27:40.487Z,9.07
2018-07-10T22:32:18.940Z,12.00
2018-07-10T22:34:47.389Z,11.47
2018-07-10T22:37:15.791Z,10.33
2018-07-10T22:39:44.701Z,9.70
2018-07-10T22:42:13.084Z,14.53
2018-07-10T22:44:43.628Z,10.50
2018-07-10T22:47:12.368Z,15.63
2018-07-10T22:49:40.812Z,12.40
2018-07-10T22:54:31.764Z,16.97
2018-07-10T22:57:00.283Z,14.43
2018-07-10T22:59:29.718Z,17.93
2018-07-10T23:01:58.746Z,13.70
2018-07-10T23:04:27.488Z,12.07
2018-07-10T23:06:56.058Z,10.33
2018-07-10T23:09:24.566Z,16.93
2018-07-10T23:11:53.049Z,14.80
2018-07-10T23:14:21.918Z,12.67
2018-07-10T23:16:50.542Z,12.17
2018-07-10T23:19:19.540Z,16.80
2018-07-10T23:21:48.318Z,17.03
2018-07-10T23:24:18.285Z,15.67
2018-07-10T23:26:48.065Z,14.17
2018-07-10T23:29:19.020Z,14.70
2018-07-10T23:31:47.555Z,16.63
2018-07-10T23:34:19.519Z,12.40
2018-07-10T23:36:53.911Z,11.63
2018-07-10T23:39:29.095Z,9.63
2018-07-10T23:42:02.349Z,17.83
2018-07-10T23:44:40.956Z,16.27
2018-07-10T23:47:20.250Z,12.77
2018-07-10T23:49:52.843Z,15.37
2018-07-10T23:53:35.104Z,21.90
2018-07-10T23:56:03.614Z,14.77
2018-07-10T23:58:32.150Z,15.80
